Time;durP1;ratioP1;P1;durP2;ratioP2;P2;SDS_P1;SDS_P2;PMS_P1;PMS_P2;Temp;Humidity;BMP_temperature;BMP_pressure;BME280_temperature;BME280_humidity;BME280_pressure;Samples;Min_cycle;Max_cycle;Signal;HPM_P1;HPM_P2
2023/10/13 00:01:59;;;;;;;5.68;3.45;;;24.30;66.30;;;;;;6222980;28;83712;-60
2023/10/13 00:04:59;;;;;;;5.63;3.58;;;24.20;66.30;;;;;;6225348;28;80989;-58
2023/10/13 00:08:00;;;;;;;11.27;4.18;;;24.20;66.30;;;;;;6231564;27;80599;-58
2023/10/13 00:11:02;;;;;;;5.68;3.70;;;24.30;66.30;;;;;;6223957;28;80327;-58
2023/10/13 00:14:03;;;;;;;3.90;3.10;;;24.30;66.30;;;;;;6225005;28;80549;-59
2023/10/13 00:17:03;;;;;;;7.25;3.75;;;24.30;66.20;;;;;;6222463;28;84249;-59
2023/10/13 00:20:11;;;;;;;4.35;2.97;;;24.30;66.20;;;;;;6210750;28;80650;-60
2023/10/13 00:23:12;;;;;;;5.30;3.40;;;24.30;66.20;;;;;;6214342;28;81078;-60
2023/10/13 00:26:13;;;;;;;6.55;3.53;;;24.30;66.20;;;;;;6221855;27;81299;-59
2023/10/13 00:32:16;;;;;;;5.13;2.80;;;24.30;66.10;;;;;;6214350;27;82135;-59
2023/10/13 00:35:28;;;;;;;6.63;3.40;;;24.20;66.00;;;;;;6222391;28;85444;-60
2023/10/13 00:38:29;;;;;;;5.53;3.10;;;24.20;66.10;;;;;;6218637;28;80900;-60
2023/10/13 00:45:05;;;;;;;3.65;2.70;;;24.30;66.10;;;;;;6147906;28;80902;-59
2023/10/13 00:48:10;;;;;;;6.85;3.53;;;24.30;66.10;;;;;;6217628;27;80332;-59
2023/10/13 00:51:18;;;;;;;7.35;3.38;;;24.30;66.00;;;;;;6210123;28;86859;-59
2023/10/13 00:54:26;;;;;;;7.13;3.53;;;24.30;66.00;;;;;;6208057;28;81699;-58
2023/10/13 00:57:27;;;;;;;8.05;3.15;;;24.30;66.00;;;;;;6224892;28;85335;-60
2023/10/13 01:00:28;;;;;;;6.00;3.80;;;24.20;66.00;;;;;;6217779;28;80558;-59
2023/10/13 01:03:31;;;;;;;5.63;3.03;;;24.20;66.00;;;;;;6213191;28;83108;-59
2023/10/13 01:06:31;;;;;;;7.15;3.28;;;24.20;66.10;;;;;;6209799;28;81100;-60
2023/10/13 01:09:32;;;;;;;6.13;3.13;;;24.20;66.00;;;;;;6213716;28;80745;-59
2023/10/13 01:12:33;;;;;;;8.32;3.28;;;24.20;66.10;;;;;;6220972;28;80826;-59
2023/10/13 01:15:33;;;;;;;7.10;3.28;;;24.20;66.00;;;;;;6222420;28;81759;-61
2023/10/13 01:18:47;;;;;;;5.00;3.20;;;24.20;66.00;;;;;;6208383;27;80900;-61
2023/10/13 01:21:47;;;;;;;7.25;3.10;;;24.20;66.10;;;;;;6221256;27;80637;-61
2023/10/13 01:24:49;;;;;;;4.00;2.95;;;24.20;66.00;;;;;;6219227;28;83404;-63
2023/10/13 01:27:51;;;;;;;6.63;4.03;;;24.20;66.00;;;;;;6221025;28;80829;-63
2023/10/13 01:30:52;;;;;;;5.13;2.63;;;24.20;66.00;;;;;;6221457;28;83590;-62
2023/10/13 01:33:54;;;;;;;4.63;2.80;;;24.20;66.00;;;;;;6229566;27;83359;-59
2023/10/13 01:36:54;;;;;;;7.28;2.95;;;24.20;66.00;;;;;;6215781;28;87949;-59
2023/10/13 01:39:55;;;;;;;5.70;3.50;;;24.20;66.00;;;;;;6215057;28;84844;-60
2023/10/13 01:42:55;;;;;;;4.68;3.10;;;24.20;66.10;;;;;;6221583;27;83274;-60
2023/10/13 01:45:56;;;;;;;6.72;3.28;;;24.20;66.00;;;;;;6219316;27;80222;-59
2023/10/13 01:48:56;;;;;;;7.70;3.33;;;24.20;66.00;;;;;;6222959;28;81888;-59
2023/10/13 01:52:03;;;;;;;7.30;3.25;;;24.20;66.00;;;;;;6211148;28;82001;-60
2023/10/13 01:55:06;;;;;;;5.57;2.95;;;24.20;66.00;;;;;;6217318;28;82344;-60
2023/10/13 01:58:14;;;;;;;5.43;2.95;;;24.20;66.00;;;;;;6222121;28;80399;-63
2023/10/13 02:01:26;;;;;;;6.68;3.20;;;24.20;66.00;;;;;;6220733;28;84446;-64
2023/10/13 02:04:26;;;;;;;8.27;3.40;;;24.20;66.10;;;;;;6216184;28;83060;-61
2023/10/13 02:07:29;;;;;;;4.50;3.00;;;24.20;65.80;;;;;;6215011;28;81192;-62
2023/10/13 02:10:31;;;;;;;6.03;3.83;;;24.20;65.80;;;;;;6213427;28;81764;-60
2023/10/13 02:13:32;;;;;;;5.72;3.40;;;24.20;65.80;;;;;;6220172;28;80712;-60
2023/10/13 02:16:32;;;;;;;6.57;3.25;;;24.20;65.90;;;;;;6200770;28;83337;-62
2023/10/13 02:19:32;;;;;;;6.57;3.35;;;24.20;65.80;;;;;;6212691;28;80830;-61
2023/10/13 02:22:33;;;;;;;6.68;3.25;;;24.30;65.90;;;;;;6220972;28;80521;-61
2023/10/13 02:25:43;;;;;;;4.70;3.13;;;24.30;65.90;;;;;;6217635;27;82629;-60
2023/10/13 02:28:51;;;;;;;4.55;3.03;;;24.30;65.90;;;;;;6217481;28;88179;-63
2023/10/13 02:31:55;;;;;;;5.35;2.83;;;24.30;66.00;;;;;;6210675;28;80749;-63
2023/10/13 02:35:05;;;;;;;4.75;3.20;;;24.30;65.80;;;;;;6221537;28;80809;-63
2023/10/13 02:38:10;;;;;;;4.50;2.42;;;24.30;65.80;;;;;;6215725;28;83714;-62
2023/10/13 02:41:11;;;;;;;9.93;3.13;;;24.30;65.70;;;;;;6214263;28;81214;-62
2023/10/13 02:44:20;;;;;;;5.68;3.03;;;24.30;65.70;;;;;;6221545;28;81137;-63
2023/10/13 02:47:23;;;;;;;8.73;2.72;;;24.30;65.70;;;;;;6218633;28;82198;-64
2023/10/13 02:50:24;;;;;;;6.20;2.95;;;24.30;65.70;;;;;;6213637;28;80720;-64
2023/10/13 02:53:28;;;;;;;7.18;3.28;;;24.30;65.60;;;;;;6214392;28;80681;-63
2023/10/13 02:56:28;;;;;;;7.38;2.70;;;24.30;65.60;;;;;;6222573;28;83453;-63
2023/10/13 02:59:46;;;;;;;5.47;2.90;;;24.30;65.60;;;;;;6222803;28;83396;-63
2023/10/13 03:02:58;;;;;;;6.00;3.33;;;24.30;65.60;;;;;;6232119;27;81360;-61
2023/10/13 03:05:59;;;;;;;5.72;2.55;;;24.30;65.80;;;;;;6222202;28;80885;-62
2023/10/13 03:09:13;;;;;;;4.55;2.90;;;24.30;65.70;;;;;;6221928;28;86708;-59
2023/10/13 03:12:13;;;;;;;5.28;3.00;;;24.30;65.80;;;;;;6218347;28;84293;-60
2023/10/13 03:15:20;;;;;;;5.53;3.35;;;24.40;65.20;;;;;;6221644;28;80657;-61
2023/10/13 03:18:20;;;;;;;8.63;3.10;;;24.40;65.40;;;;;;6218846;28;81295;-61
2023/10/13 03:21:31;;;;;;;5.30;3.25;;;24.40;65.50;;;;;;6221932;28;80221;-61
2023/10/13 03:24:34;;;;;;;6.32;2.95;;;24.40;65.30;;;;;;6215129;28;84320;-59
2023/10/13 03:30:52;;;;;;;6.37;3.13;;;24.40;65.10;;;;;;6224034;28;82344;-60
2023/10/13 03:34:00;;;;;;;4.35;2.83;;;24.50;65.10;;;;;;6217072;28;86454;-60
2023/10/13 03:37:10;;;;;;;4.72;2.70;;;24.50;65.30;;;;;;6219097;27;80520;-60
2023/10/13 03:43:23;;;;;;;5.18;2.92;;;24.60;65.30;;;;;;6219444;27;80780;-59
2023/10/13 03:46:26;;;;;;;4.57;2.97;;;24.60;65.20;;;;;;6220736;27;83485;-61
2023/10/13 03:49:29;;;;;;;5.95;3.45;;;24.60;65.30;;;;;;6245753;27;81208;-60
2023/10/13 03:52:35;;;;;;;7.03;3.60;;;24.60;65.30;;;;;;6219877;27;80630;-59
2023/10/13 03:55:36;;;;;;;4.30;3.13;;;24.60;64.90;;;;;;6218898;28;84743;-59
2023/10/13 03:58:38;;;;;;;6.03;3.40;;;24.60;64.70;;;;;;6220450;28;80143;-59
2023/10/13 04:04:54;;;;;;;5.15;3.20;;;24.60;64.80;;;;;;6218554;27;81470;-60
2023/10/13 04:17:53;;;;;;;4.53;2.85;;;24.60;65.30;;;;;;6219457;28;82029;-60
2023/10/13 04:21:07;;;;;;;9.95;3.17;;;24.60;65.50;;;;;;6219846;28;80622;-61
2023/10/13 04:27:39;;;;;;;8.18;3.25;;;24.60;65.30;;;;;;6214060;27;80973;-59
2023/10/13 04:31:20;;;;;;;3.80;2.80;;;24.60;65.40;;;;;;6195147;28;86077;-59
2023/10/13 04:34:15;;;;;;;16.77;3.58;;;24.70;65.50;;;;;;6215412;28;84459;-62
2023/10/13 04:40:59;;;;;;;8.25;3.47;;;24.70;65.50;;;;;;6208590;28;80755;-65
2023/10/13 04:44:23;;;;;;;5.75;3.10;;;24.70;65.90;;;;;;6210938;27;81223;-64
2023/10/13 04:47:29;;;;;;;5.65;3.13;;;24.70;66.20;;;;;;6219720;27;80449;-62
2023/10/13 04:50:41;;;;;;;12.93;4.57;;;24.70;65.90;;;;;;6206998;28;80800;-59
2023/10/13 05:47:23;;;;;;;10.73;5.20;;;24.50;63.60;;;;;;6100468;27;86648;-60
2023/10/13 06:30:12;;;;;;;13.18;5.47;;;24.10;63.90;;;;;;6066033;28;80447;-65
2023/10/13 06:33:12;;;;;;;15.23;6.97;;;24.00;63.30;;;;;;6098487;28;85443;-65
2023/10/13 06:36:13;;;;;;;10.60;5.78;;;24.00;63.60;;;;;;6103854;28;83745;-65
2023/10/13 06:39:35;;;;;;;12.82;6.43;;;24.00;63.30;;;;;;6095497;28;81973;-64
2023/10/13 06:42:39;;;;;;;13.35;5.93;;;23.90;63.30;;;;;;6098096;28;84923;-65
2023/10/13 06:45:42;;;;;;;11.48;5.60;;;23.80;63.50;;;;;;6094045;27;81479;-64
2023/10/13 06:48:43;;;;;;;14.40;5.80;;;23.80;63.50;;;;;;6091836;28;82122;-64
2023/10/13 06:51:46;;;;;;;15.80;5.93;;;23.80;63.50;;;;;;6098350;28;82093;-69
2023/10/13 06:54:47;;;;;;;13.07;5.88;;;23.80;64.30;;;;;;6095130;28;82439;-64
2023/10/13 06:57:49;;;;;;;18.33;6.15;;;23.80;63.90;;;;;;6092040;28;82479;-63
2023/10/13 07:00:58;;;;;;;15.98;5.80;;;23.70;64.60;;;;;;6091729;28;81958;-63
2023/10/13 07:04:01;;;;;;;17.67;6.55;;;23.70;64.10;;;;;;6092213;28;85725;-66
2023/10/13 07:07:03;;;;;;;15.52;6.57;;;23.70;64.00;;;;;;6096331;28;83121;-65
2023/10/13 07:10:07;;;;;;;16.65;6.32;;;23.70;64.40;;;;;;6098335;28;81752;-66
2023/10/13 07:13:08;;;;;;;23.50;7.47;;;23.70;64.60;;;;;;6098974;28;82281;-67
2023/10/13 07:16:12;;;;;;;20.42;6.72;;;23.70;64.70;;;;;;6100947;28;81952;-65
2023/10/13 07:19:16;;;;;;;18.98;7.53;;;23.70;64.60;;;;;;6093222;27;82038;-64
2023/10/13 07:22:20;;;;;;;17.08;7.70;;;23.60;64.90;;;;;;6093034;27;83238;-61
2023/10/13 07:25:25;;;;;;;17.27;7.38;;;23.60;65.10;;;;;;6096137;27;82429;-61
2023/10/13 07:28:25;;;;;;;21.00;7.70;;;23.60;65.20;;;;;;6105279;28;82177;-60
2023/10/13 07:31:27;;;;;;;20.20;7.07;;;23.60;65.30;;;;;;6099350;28;82607;-61
2023/10/13 07:34:31;;;;;;;16.50;6.40;;;23.60;65.50;;;;;;6099199;28;82216;-61
2023/10/13 07:37:32;;;;;;;22.00;7.60;;;23.70;65.50;;;;;;6102515;28;84003;-60
2023/10/13 07:43:39;;;;;;;15.52;6.60;;;23.60;65.80;;;;;;6217335;28;85692;-61
2023/10/13 07:46:40;;;;;;;13.13;6.05;;;23.60;65.70;;;;;;6213287;27;80628;-61
2023/10/13 07:49:40;;;;;;;20.42;5.97;;;23.60;65.90;;;;;;6215635;28;80829;-61
2023/10/13 07:52:58;;;;;;;13.50;5.90;;;23.60;66.00;;;;;;6222899;28;82266;-61
2023/10/13 07:56:04;;;;;;;10.25;5.55;;;23.50;66.00;;;;;;6225391;28;80424;-58
2023/10/13 07:59:08;;;;;;;12.65;5.60;;;23.50;65.80;;;;;;6215138;28;81312;-63
2023/10/13 08:02:12;;;;;;;15.38;5.95;;;23.40;66.30;;;;;;6217087;28;82423;-63
2023/10/13 08:05:15;;;;;;;13.95;5.25;;;23.40;66.70;;;;;;6217512;28;80302;-62
2023/10/13 08:08:17;;;;;;;7.20;4.32;;;23.40;66.80;;;;;;6214703;27;80280;-65
2023/10/13 08:14:28;;;;;;;20.58;5.43;;;23.40;67.30;;;;;;6220957;28;80416;-63
2023/10/13 08:17:31;;;;;;;13.05;5.18;;;23.30;67.50;;;;;;6214670;28;82198;-65
2023/10/13 08:20:38;;;;;;;9.25;5.00;;;23.40;67.40;;;;;;6215927;27;80918;-64
2023/10/13 08:27:32;;;;;;;14.18;5.97;;;23.50;68.20;;;;;;6214569;28;80514;-66
2023/10/13 08:30:27;;;;;;;10.95;5.65;;;23.50;68.50;;;;;;6223498;28;80669;-68
2023/10/13 08:33:28;;;;;;;8.90;4.72;;;23.40;68.30;;;;;;6221607;28;83589;-67
2023/10/13 08:36:29;;;;;;;16.05;5.40;;;23.40;68.70;;;;;;6234932;28;80374;-68
2023/10/13 08:43:11;;;;;;;11.25;4.80;;;23.40;69.80;;;;;;6172431;28;87669;-70
2023/10/13 08:46:24;;;;;;;9.77;4.88;;;23.50;70.20;;;;;;6163828;28;80500;-67
2023/10/13 08:49:29;;;;;;;11.20;5.32;;;23.70;70.00;;;;;;6224367;28;82787;-67
2023/10/13 08:52:46;;;;;;;11.27;4.63;;;23.70;69.10;;;;;;6219502;28;82153;-67
2023/10/13 08:56:02;;;;;;;10.38;4.68;;;23.80;69.10;;;;;;6225063;27;80275;-59
2023/10/13 09:02:15;;;;;;;11.70;4.72;;;24.00;66.40;;;;;;6230776;28;80358;-61
2023/10/13 09:08:35;;;;;;;11.25;4.13;;;24.20;66.30;;;;;;6220279;28;87763;-59
2023/10/13 09:12:07;;;;;;;7.18;4.10;;;24.30;65.90;;;;;;6222193;28;80335;-59
2023/10/13 09:15:06;;;;;;;9.70;4.72;;;24.30;66.30;;;;;;6220976;27;82664;-69
2023/10/13 09:18:14;;;;;;;11.02;4.22;;;24.40;66.80;;;;;;6204565;28;80642;-69
2023/10/13 09:22:00;;;;;;;10.45;4.70;;;24.50;65.00;;;;;;6206999;28;84609;-70
2023/10/13 09:24:36;;;;;;;9.52;4.53;;;24.60;66.40;;;;;;6196751;28;83750;-68
2023/10/13 09:27:37;;;;;;;7.68;3.95;;;24.70;65.60;;;;;;6225910;27;81701;-70
2023/10/13 09:30:38;;;;;;;9.07;4.47;;;24.70;65.40;;;;;;6219093;28;82249;-61
2023/10/13 09:33:50;;;;;;;7.72;4.05;;;24.80;64.90;;;;;;6202624;28;81159;-61
2023/10/13 09:36:55;;;;;;;10.13;4.93;;;24.80;63.70;;;;;;6205823;28;81732;-59
2023/10/13 09:40:04;;;;;;;8.60;4.93;;;24.90;64.50;;;;;;6186771;28;83039;-58
2023/10/13 09:43:08;;;;;;;8.23;4.25;;;24.90;63.40;;;;;;6209670;28;80333;-59
2023/10/13 09:46:15;;;;;;;11.98;5.15;;;24.90;64.50;;;;;;6196708;27;83147;-60
2023/10/13 09:49:22;;;;;;;12.35;4.78;;;25.00;64.70;;;;;;6216654;28;80358;-61
2023/10/13 09:52:25;;;;;;;8.82;4.40;;;25.10;64.40;;;;;;6208778;28;85499;-64
2023/10/13 09:55:26;;;;;;;10.35;4.40;;;25.10;64.40;;;;;;6212032;27;80479;-63
2023/10/13 09:58:29;;;;;;;9.13;4.65;;;25.10;64.20;;;;;;6215999;28;80844;-62
2023/10/13 10:01:33;;;;;;;11.45;5.00;;;25.20;64.00;;;;;;6214779;28;80817;-62
2023/10/13 10:04:40;;;;;;;10.75;4.30;;;25.30;62.80;;;;;;6211428;27;80512;-64
2023/10/13 10:07:40;;;;;;;8.63;4.60;;;25.30;62.20;;;;;;6212897;27;80240;-68
2023/10/13 10:10:41;;;;;;;8.70;5.20;;;25.30;63.80;;;;;;6215345;28;80929;-69
2023/10/13 10:13:41;;;;;;;16.40;6.40;;;25.50;63.20;;;;;;6226902;28;80810;-72
2023/10/13 10:16:41;;;;;;;11.30;4.40;;;25.50;63.70;;;;;;6225568;28;81274;-75
2023/10/13 10:19:42;;;;;;;8.32;4.72;;;25.60;63.50;;;;;;6234427;27;80820;-73
2023/10/13 10:22:48;;;;;;;11.20;4.55;;;25.70;63.70;;;;;;6238089;27;80100;-77
2023/10/13 10:25:51;;;;;;;12.13;5.28;;;25.60;62.20;;;;;;6223392;28;84886;-58
2023/10/13 10:28:53;;;;;;;13.68;4.93;;;25.60;61.50;;;;;;6219143;28;80736;-61
2023/10/13 10:31:54;;;;;;;10.18;4.50;;;25.60;61.00;;;;;;6207247;28;81054;-60
2023/10/13 10:34:54;;;;;;;12.77;4.68;;;25.70;62.20;;;;;;6216934;28;82165;-60
2023/10/13 10:37:55;;;;;;;9.38;4.47;;;25.70;61.50;;;;;;6220277;27;81493;-59
2023/10/13 10:40:58;;;;;;;7.35;4.22;;;25.80;62.60;;;;;;6218360;27;80427;-60
2023/10/13 10:44:02;;;;;;;12.25;4.47;;;25.90;63.00;;;;;;6214906;28;80434;-59
2023/10/13 10:47:03;;;;;;;12.48;5.00;;;25.90;62.50;;;;;;6204559;28;80659;-58
2023/10/13 10:51:06;;;;;;;8.82;4.32;;;25.90;62.60;;;;;;6208146;28;80484;-60
2023/10/13 10:53:33;;;;;;;8.63;4.40;;;25.90;63.00;;;;;;6198248;28;80923;-58
2023/10/13 10:56:37;;;;;;;9.63;5.00;;;25.90;62.90;;;;;;6208345;28;80581;-59
2023/10/13 10:59:37;;;;;;;12.00;4.97;;;25.90;63.00;;;;;;6219232;28;83625;-59
2023/10/13 11:02:38;;;;;;;11.00;4.82;;;26.00;62.90;;;;;;6208246;28;82325;-62
2023/10/13 11:05:38;;;;;;;12.32;4.40;;;26.00;62.20;;;;;;6205238;28;80553;-63
2023/10/13 11:08:41;;;;;;;9.00;4.53;;;26.10;62.80;;;;;;6205542;28;82701;-61
2023/10/13 11:11:43;;;;;;;17.58;4.93;;;26.10;61.00;;;;;;6204937;28;81462;-61
2023/10/13 11:14:48;;;;;;;37.97;5.28;;;26.10;62.60;;;;;;6221804;28;80281;-61
2023/10/13 11:17:54;;;;;;;7.28;4.60;;;26.20;62.50;;;;;;6229266;27;81057;-64
2023/10/13 11:20:54;;;;;;;7.85;4.93;;;26.20;60.70;;;;;;6228547;27;80473;-60
2023/10/13 11:23:55;;;;;;;9.93;4.80;;;26.20;61.60;;;;;;6226787;27;80791;-59
2023/10/13 11:26:57;;;;;;;10.18;5.25;;;26.30;61.80;;;;;;6226361;27;80871;-60
2023/10/13 11:30:05;;;;;;;8.48;3.83;;;26.30;61.10;;;;;;6226419;28;82268;-57
2023/10/13 11:33:05;;;;;;;8.55;4.32;;;26.40;59.40;;;;;;6212124;27;80679;-57
2023/10/13 11:36:14;;;;;;;13.07;4.32;;;26.40;58.20;;;;;;6204370;28;80727;-60
2023/10/13 11:39:25;;;;;;;6.18;3.75;;;26.40;59.20;;;;;;6226333;28;81321;-60
2023/10/13 11:42:27;;;;;;;8.25;3.75;;;26.50;57.90;;;;;;6210148;28;83633;-61
2023/10/13 11:45:35;;;;;;;11.48;3.80;;;26.50;59.20;;;;;;6204498;28;80343;-62
2023/10/13 11:48:36;;;;;;;8.82;3.70;;;26.60;60.60;;;;;;6228523;27;80896;-62
2023/10/13 11:51:38;;;;;;;7.70;4.50;;;26.50;60.20;;;;;;6216597;27;82457;-61
2023/10/13 11:54:41;;;;;;;11.07;3.80;;;26.50;58.90;;;;;;6242235;27;80504;-60
2023/10/13 11:57:43;;;;;;;6.13;4.00;;;26.60;60.90;;;;;;6237424;27;80648;-59
2023/10/13 12:01:19;;;;;;;8.52;3.15;;;26.60;59.00;;;;;;6225603;27;80844;-58
2023/10/13 12:04:32;;;;;;;6.25;3.45;;;26.60;56.50;;;;;;6224313;27;81127;-60
2023/10/13 12:07:47;;;;;;;12.55;3.85;;;26.60;56.60;;;;;;6225700;27;80511;-60
2023/10/13 12:11:00;;;;;;;8.43;3.50;;;26.60;57.00;;;;;;6225063;28;80345;-63
2023/10/13 12:14:11;;;;;;;15.52;3.60;;;26.60;56.70;;;;;;6228557;27;80535;-59
2023/10/13 12:17:13;;;;;;;12.13;3.70;;;26.70;58.70;;;;;;6214152;28;82234;-75
2023/10/13 12:20:32;;;;;;;13.38;4.93;;;26.70;58.60;;;;;;6203664;28;80385;-76
2023/10/13 12:23:32;;;;;;;11.57;3.55;;;26.70;58.50;;;;;;6217118;27;81081;-78
2023/10/13 12:26:33;;;;;;;13.93;3.63;;;26.60;57.20;;;;;;6236752;27;80256;-77
2023/10/13 12:29:35;;;;;;;6.65;3.30;;;26.50;58.40;;;;;;6227102;28;80849;-75
2023/10/13 12:32:35;;;;;;;9.77;3.72;;;26.60;58.10;;;;;;6231003;27;81828;-78
2023/10/13 12:35:44;;;;;;;7.40;3.47;;;26.60;58.60;;;;;;6219472;28;80612;-75
2023/10/13 12:51:52;;;;;;;10.02;4.25;;;26.60;57.70;;;;;;6223687;28;82330;-73
2023/10/13 12:57:56;;;;;;;5.03;3.55;;;26.50;58.00;;;;;;6226302;27;80756;-77
2023/10/13 13:01:06;;;;;;;9.82;4.00;;;26.50;57.20;;;;;;6228878;28;80607;-78
2023/10/13 13:04:11;;;;;;;10.52;4.10;;;26.40;57.40;;;;;;6223703;27;80595;-75
2023/10/13 13:07:13;;;;;;;5.53;3.47;;;26.40;58.10;;;;;;6215929;28;81363;-73
2023/10/13 13:10:13;;;;;;;9.95;3.90;;;26.40;57.80;;;;;;6224437;28;80360;-73
2023/10/13 13:13:16;;;;;;;7.93;3.53;;;26.30;58.20;;;;;;6230307;27;80837;-59
2023/10/13 13:16:23;;;;;;;9.40;4.25;;;26.40;58.80;;;;;;6228174;28;80372;-58
2023/10/13 13:19:25;;;;;;;10.55;3.60;;;26.40;58.50;;;;;;6202725;28;80781;-59
2023/10/13 13:22:27;;;;;;;8.50;4.03;;;26.50;58.50;;;;;;6210903;27;80919;-60
2023/10/13 13:25:30;;;;;;;7.85;3.33;;;26.50;60.30;;;;;;6205836;28;80384;-64
2023/10/13 13:28:37;;;;;;;13.02;4.72;;;26.50;60.40;;;;;;6224940;28;80428;-60
2023/10/13 13:31:41;;;;;;;6.93;3.50;;;26.40;59.10;;;;;;6226702;27;80268;-62
2023/10/13 13:34:42;;;;;;;7.72;3.90;;;26.40;59.20;;;;;;6203023;28;83876;-62
2023/10/13 13:37:44;;;;;;;8.30;3.92;;;26.30;59.50;;;;;;6208516;28;80171;-67
2023/10/13 13:40:48;;;;;;;4.50;3.33;;;26.30;59.80;;;;;;6222427;27;80827;-64
2023/10/13 13:46:52;;;;;;;7.15;4.18;;;26.40;59.40;;;;;;6224401;28;80655;-61
2023/10/13 13:49:54;;;;;;;7.75;3.60;;;26.40;58.90;;;;;;6221850;28;80180;-63
2023/10/13 13:52:57;;;;;;;12.30;3.92;;;26.40;59.90;;;;;;6219281;27;80757;-63
2023/10/13 13:55:58;;;;;;;6.55;4.28;;;26.50;58.90;;;;;;6222328;27;80329;-63
2023/10/13 13:59:07;;;;;;;7.10;3.55;;;26.50;58.80;;;;;;6218509;27;80402;-62
2023/10/13 14:02:19;;;;;;;10.18;3.97;;;26.50;60.70;;;;;;6229193;27;81746;-63
2023/10/13 14:05:20;;;;;;;6.10;3.72;;;26.50;60.10;;;;;;6232783;27;80469;-63
2023/10/13 14:08:21;;;;;;;10.10;3.58;;;26.50;60.10;;;;;;6221263;27;80813;-61
2023/10/13 14:11:22;;;;;;;9.60;4.32;;;26.50;59.60;;;;;;6224000;27;83790;-60
2023/10/13 14:17:29;;;;;;;6.95;3.47;;;26.50;59.70;;;;;;6203743;28;81180;-60
2023/10/13 14:20:30;;;;;;;8.60;4.25;;;26.40;59.40;;;;;;6208467;28;83763;-60
2023/10/13 14:23:30;;;;;;;8.32;3.30;;;26.30;59.80;;;;;;6225859;28;82422;-60
2023/10/13 14:26:33;;;;;;;8.88;3.40;;;26.30;58.80;;;;;;6218541;28;80947;-61
2023/10/13 14:29:33;;;;;;;6.88;3.55;;;26.30;59.40;;;;;;6220135;28;80773;-60
2023/10/13 14:32:40;;;;;;;14.02;3.85;;;26.20;58.80;;;;;;6213606;28;81070;-60
2023/10/13 14:35:40;;;;;;;5.90;3.17;;;26.10;59.00;;;;;;6238407;28;80483;-60
2023/10/13 14:38:44;;;;;;;7.22;4.35;;;26.00;59.10;;;;;;6228934;27;81065;-61
2023/10/13 14:41:47;;;;;;;8.57;3.65;;;25.90;59.30;;;;;;6228913;27;81138;-61
2023/10/13 14:44:55;;;;;;;8.60;4.03;;;25.90;59.70;;;;;;6231294;27;81653;-67
2023/10/13 14:47:55;;;;;;;8.23;4.22;;;25.90;59.80;;;;;;6228753;28;80739;-69
2023/10/13 14:50:56;;;;;;;10.93;3.40;;;25.90;60.30;;;;;;6229893;27;81800;-71
2023/10/13 14:53:56;;;;;;;8.82;3.50;;;25.90;60.90;;;;;;6229083;28;80439;-71
2023/10/13 14:56:57;;;;;;;7.47;3.58;;;25.90;61.10;;;;;;6229569;27;80911;-70
2023/10/13 14:59:57;;;;;;;5.15;3.53;;;25.80;62.00;;;;;;6229527;27;80597;-70
2023/10/13 15:03:01;;;;;;;10.40;3.72;;;25.80;62.00;;;;;;6229907;27;80450;-68
2023/10/13 15:06:01;;;;;;;5.82;3.38;;;25.80;61.60;;;;;;6222695;27;80782;-73
2023/10/13 15:09:03;;;;;;;6.55;3.30;;;25.80;62.00;;;;;;6225222;27;81000;-72
2023/10/13 15:12:05;;;;;;;8.30;3.80;;;25.80;61.60;;;;;;6220055;28;80534;-70
2023/10/13 15:15:13;;;;;;;8.07;3.58;;;25.70;61.80;;;;;;6225498;28;80487;-69
2023/10/13 15:18:13;;;;;;;8.82;3.72;;;25.70;62.10;;;;;;6217269;28;80957;-70
2023/10/13 15:21:14;;;;;;;6.95;3.47;;;25.70;62.10;;;;;;6213317;28;81342;-59
2023/10/13 15:24:14;;;;;;;7.05;3.60;;;25.70;62.00;;;;;;6227259;27;85070;-60
2023/10/13 15:27:15;;;;;;;6.78;4.00;;;25.70;62.00;;;;;;6225823;27;81657;-61
2023/10/13 15:30:23;;;;;;;7.80;4.50;;;25.60;62.30;;;;;;6218072;28;81244;-60
2023/10/13 15:33:25;;;;;;;8.77;3.88;;;25.60;62.60;;;;;;6216403;28;83526;-60
2023/10/13 15:36:25;;;;;;;9.35;3.75;;;25.50;62.60;;;;;;6226638;28;84195;-61
2023/10/13 15:39:31;;;;;;;6.40;3.92;;;25.40;62.70;;;;;;6224276;28;80871;-61
2023/10/13 15:42:31;;;;;;;;;;;25.40;62.80;;;;;;6207773;28;80558;-61
2023/10/13 15:45:38;;;;;;;9.32;3.88;;;25.30;62.90;;;;;;6223389;27;80442;-60
2023/10/13 15:48:39;;;;;;;11.48;4.38;;;25.30;63.10;;;;;;6213028;28;82867;-61
2023/10/13 15:51:39;;;;;;;8.13;4.40;;;25.20;63.40;;;;;;6223579;28;80522;-60
2023/10/13 15:54:40;;;;;;;6.57;4.05;;;25.10;63.90;;;;;;6212953;27;87187;-61
2023/10/13 15:57:41;;;;;;;8.45;4.63;;;25.00;64.10;;;;;;6218294;27;81935;-60
2023/10/13 16:00:42;;;;;;;12.20;4.65;;;25.00;64.20;;;;;;6220285;27;81107;-60
2023/10/13 16:03:49;;;;;;;8.77;4.25;;;24.80;64.50;;;;;;6223156;28;80880;-60
2023/10/13 16:06:50;;;;;;;16.88;5.65;;;24.80;64.70;;;;;;6219198;27;82497;-60
2023/10/13 16:09:57;;;;;;;7.68;4.47;;;24.70;65.10;;;;;;6223536;28;83235;-62
2023/10/13 16:13:00;;;;;;;10.95;4.53;;;24.60;65.40;;;;;;6186788;28;83757;-59
2023/10/13 16:16:01;;;;;;;9.18;4.57;;;24.50;65.30;;;;;;6196985;28;81082;-57
2023/10/13 16:19:04;;;;;;;15.30;4.90;;;24.40;65.70;;;;;;6206822;27;83692;-60
2023/10/13 16:22:05;;;;;;;8.15;4.63;;;24.40;66.30;;;;;;6207652;27;82924;-57
2023/10/13 16:25:11;;;;;;;7.25;4.50;;;24.50;66.30;;;;;;6217373;27;81107;-60
2023/10/13 16:28:14;;;;;;;;;;;24.60;66.70;;;;;;6204777;28;82801;-59
2023/10/13 16:31:15;;;;;;;8.32;4.28;;;24.70;66.60;;;;;;6216349;27;80475;-59
2023/10/13 16:34:15;;;;;;;8.70;4.20;;;24.80;66.40;;;;;;6202038;28;81020;-59
2023/10/13 16:37:16;;;;;;;8.05;4.00;;;24.90;66.10;;;;;;6206405;27;81234;-59
2023/10/13 16:40:18;;;;;;;7.78;4.38;;;24.90;65.90;;;;;;6206984;28;80863;-61
2023/10/13 16:43:18;;;;;;;7.78;3.90;;;25.00;65.80;;;;;;6202867;28;83494;-60
2023/10/13 16:46:19;;;;;;;10.55;4.70;;;25.00;65.60;;;;;;6201924;28;85741;-60
2023/10/13 16:49:19;;;;;;;8.43;4.38;;;25.10;65.70;;;;;;6218314;28;81585;-59
2023/10/13 16:52:20;;;;;;;9.35;4.30;;;25.10;65.60;;;;;;6219593;28;81160;-59
2023/10/13 16:55:21;;;;;;;12.00;4.15;;;25.10;65.40;;;;;;6213735;28;81317;-59
2023/10/13 16:58:22;;;;;;;9.05;4.20;;;25.10;65.10;;;;;;6207860;27;82067;-60
2023/10/13 17:01:22;;;;;;;11.68;4.60;;;25.10;65.50;;;;;;6222587;28;81263;-59
2023/10/13 17:04:24;;;;;;;9.85;4.90;;;25.10;65.70;;;;;;6213402;28;80664;-58
2023/10/13 17:07:24;;;;;;;13.93;4.38;;;25.20;65.60;;;;;;6206849;27;80488;-57
2023/10/13 17:10:28;;;;;;;7.90;4.65;;;25.20;64.90;;;;;;6211164;28;82574;-60
2023/10/13 17:13:29;;;;;;;7.45;3.97;;;25.20;64.70;;;;;;6223423;27;83239;-60
2023/10/13 17:16:31;;;;;;;13.80;5.30;;;25.10;64.90;;;;;;6219342;28;84258;-59
2023/10/13 17:19:33;;;;;;;9.48;4.05;;;25.10;64.90;;;;;;6200830;28;83850;-61
2023/10/13 17:22:36;;;;;;;6.93;3.80;;;25.20;65.00;;;;;;6208870;28;80858;-60
2023/10/13 17:25:36;;;;;;;6.25;3.97;;;25.20;65.20;;;;;;6207816;27;82707;-60
2023/10/13 17:28:37;;;;;;;9.80;4.65;;;25.20;65.20;;;;;;6208424;28;80977;-61
2023/10/13 17:31:38;;;;;;;9.73;4.07;;;25.20;65.30;;;;;;6206075;28;81010;-61
2023/10/13 17:34:39;;;;;;;6.53;3.85;;;25.20;65.60;;;;;;6203545;28;83123;-60
2023/10/13 17:37:43;;;;;;;6.05;3.70;;;25.20;65.80;;;;;;6200020;27;81345;-60
2023/10/13 17:40:43;;;;;;;6.63;3.85;;;25.20;65.90;;;;;;6214506;27;82013;-59
2023/10/13 17:43:45;;;;;;;6.53;3.88;;;25.20;65.90;;;;;;6218077;27;82585;-61
2023/10/13 17:46:46;;;;;;;10.15;3.80;;;25.30;66.30;;;;;;6212959;27;81179;-58
2023/10/13 17:49:46;;;;;;;5.60;3.75;;;25.30;66.00;;;;;;6215280;27;81222;-59
2023/10/13 17:52:47;;;;;;;6.53;4.00;;;25.30;66.40;;;;;;6209633;28;80661;-59
2023/10/13 17:55:50;;;;;;;6.20;3.45;;;25.30;66.70;;;;;;6191506;28;81574;-59
2023/10/13 17:58:54;;;;;;;6.60;4.35;;;25.20;66.40;;;;;;6181119;27;82402;-59
2023/10/13 18:01:54;;;;;;;5.50;4.00;;;25.20;66.30;;;;;;6173219;28;83840;-60
2023/10/13 18:04:55;;;;;;;10.35;4.10;;;25.20;66.50;;;;;;6173225;27;81261;-60
2023/10/13 18:07:55;;;;;;;9.60;4.70;;;25.20;66.30;;;;;;6188044;28;82637;-60
2023/10/13 18:10:56;;;;;;;8.73;4.03;;;25.20;66.80;;;;;;6185065;27;81626;-58
2023/10/13 18:13:57;;;;;;;8.13;3.88;;;25.20;66.70;;;;;;6186301;28;81697;-58
2023/10/13 18:16:58;;;;;;;9.80;4.35;;;25.30;66.90;;;;;;6195296;27;81686;-58
2023/10/13 18:19:59;;;;;;;11.85;4.80;;;25.20;66.60;;;;;;6180299;28;80582;-57
2023/10/13 18:22:59;;;;;;;8.07;3.75;;;25.20;66.80;;;;;;6183991;27;81115;-60
2023/10/13 18:26:02;;;;;;;6.63;4.05;;;25.30;66.50;;;;;;6184378;28;81458;-58
2023/10/13 18:29:04;;;;;;;6.50;4.20;;;25.30;66.40;;;;;;6190389;28;81586;-59
2023/10/13 18:32:04;;;;;;;9.55;4.65;;;25.30;65.90;;;;;;6197676;27;81786;-59
2023/10/13 18:35:08;;;;;;;6.65;4.05;;;25.30;65.40;;;;;;6206181;27;81973;-61
2023/10/13 18:38:10;;;;;;;9.43;4.13;;;25.30;65.20;;;;;;6198299;27;81333;-60
2023/10/13 18:41:15;;;;;;;6.72;4.00;;;25.30;64.60;;;;;;6196058;28;84773;-61